Silver Lake, Wisconsin
Current Conditions -  °F | °C
As of 8:15 AM on Monday 26 Jan 2015 (Local Time) from KBUU Reporting Station
Broken Clouds Broken Clouds  
Wind Chill: 14°   Ceiling: 7500
Heat Index: 14°   Visibility: 10mi
Dew Point: 11°   Wind: 0mph
Humidity: 90%   Direction: NA
Pressure: 29.94"   Gusts: NA
Location:  42.55°N, 88.17°W
Report Text: KBUU 261415Z AUTO 00000KT 10SM BKN075 M10/M12 A2994 RMK AO2 T11021116
Loading
Personal Weather Stations






























Interactive Weather Map New forecast layout! Learn more

10-Day Weather Forecast

Advertisements
Track Severe Weather on mobile